One Hundred Palms, California
Current Conditions -  °F | °C
As of 9:56 AM on Thursday 29 Jan 2015 (Local Time) from KNJK Reporting Station
Overcast Overcast  
Wind Chill: 20°   Ceiling: 12000
Heat Index: 20°   Visibility: 10mi
Dew Point: 11°   Wind: 5mph
Humidity: 56%   Direction: 250°WSW
Pressure: 30.08"   Gusts: NA
Location:  33.093°N, 116.06°W
Report Text: KNJK 291756Z 25004KT 10SM BKN120 OVC150 20/11 A3008 RMK AO2 SLP202 T02000111 10200 20139 53006
Loading
Personal Weather Stations






























Interactive Weather Map New forecast layout! Learn more

10-Day Weather Forecast

Advertisements
Track Severe Weather on mobile